Time;durP1;ratioP1;P1;durP2;ratioP2;P2;SDS_P1;SDS_P2;PMS_P1;PMS_P2;Temp;Humidity;BMP_temperature;BMP_pressure;BME280_temperature;BME280_humidity;BME280_pressure;Samples;Min_cycle;Max_cycle;Signal;HPM_P1;HPM_P2
2021/01/22 00:02:01;;;;;;;1.95;0.60;;;10.30;99.90;;;11.01;75.41;97516.75;5058485;28;20052;-86
2021/01/22 00:04:27;;;;;;;2.15;0.95;;;10.30;99.90;;;10.96;75.32;97506.88;5048238;28;20029;-84
2021/01/22 00:06:53;;;;;;;2.40;0.63;;;10.30;99.90;;;10.94;75.92;97509.31;5046920;28;20030;-84
2021/01/22 00:09:19;;;;;;;1.10;0.40;;;10.20;99.90;;;10.95;75.18;97502.50;5046453;28;20028;-85
2021/01/22 00:11:48;;;;;;;1.30;0.40;;;10.30;99.90;;;10.94;75.49;97503.75;5046129;28;20101;-84
2021/01/22 00:14:14;;;;;;;1.30;0.38;;;10.30;99.90;;;10.88;75.89;97497.13;5045998;28;20036;-85
2021/01/22 00:16:41;;;;;;;0.60;0.30;;;10.30;99.90;;;10.97;75.39;97494.50;5045552;28;20508;-83
2021/01/22 00:19:07;;;;;;;0.50;0.30;;;10.30;99.90;;;10.94;75.00;97502.94;5045849;28;20028;-87
2021/01/22 00:21:33;;;;;;;1.08;0.35;;;10.30;99.90;;;10.97;75.20;97494.50;5064238;28;20377;-84
2021/01/22 00:23:59;;;;;;;2.25;0.40;;;10.30;99.90;;;10.97;75.07;97491.69;5053068;28;20036;-83
2021/01/22 00:26:26;;;;;;;7.15;1.02;;;10.40;99.90;;;10.95;75.23;97487.75;5044254;28;20282;-83
2021/01/22 00:28:51;;;;;;;1.75;0.30;;;10.40;99.90;;;11.06;74.71;97486.28;5044436;28;20029;-83
2021/01/22 00:31:17;;;;;;;0.75;0.50;;;10.40;99.90;;;11.06;75.26;97488.28;5043431;28;20033;-83
2021/01/22 00:33:43;;;;;;;3.05;0.50;;;10.40;99.90;;;10.94;77.22;97469.44;5044340;28;20029;-86
2021/01/22 00:36:09;;;;;;;3.25;0.40;;;10.40;99.90;;;10.73;77.95;97467.94;5044328;28;20390;-86
2021/01/22 00:38:35;;;;;;;1.52;0.60;;;10.30;99.90;;;10.65;79.78;97457.41;5042670;28;20049;-84
2021/01/22 00:41:01;;;;;;;1.92;0.75;;;10.10;99.90;;;10.62;79.51;97470.22;5042483;28;20393;-85
2021/01/22 00:43:26;;;;;;;1.30;0.50;;;10.00;99.90;;;10.65;79.48;97468.56;5060996;28;20040;-85
2021/01/22 00:45:53;;;;;;;1.92;0.60;;;10.00;99.90;;;10.67;79.14;97460.53;5042915;28;20025;-82
2021/01/22 00:48:19;;;;;;;2.00;0.45;;;10.00;99.90;;;10.49;79.65;97453.41;5043491;28;20025;-86
2021/01/22 00:50:45;;;;;;;1.60;0.88;;;10.00;99.90;;;10.53;79.19;97454.06;5041981;28;20056;-86
2021/01/22 00:53:11;;;;;;;1.02;0.55;;;10.00;99.90;;;10.68;78.82;97445.38;5042611;28;20041;-84
2021/01/22 00:55:37;;;;;;;3.28;0.60;;;10.00;99.90;;;10.61;78.92;97460.28;5060242;28;20091;-84
2021/01/22 00:58:03;;;;;;;5.50;0.50;;;10.00;99.90;;;10.47;79.57;97453.03;5042136;28;20457;-84
2021/01/22 01:00:29;;;;;;;2.72;0.50;;;9.90;99.90;;;10.43;79.38;97451.56;5041603;28;20090;-83
2021/01/22 01:02:55;;;;;;;1.85;0.60;;;9.90;99.90;;;10.44;80.12;97447.53;5060510;28;20037;-84
2021/01/22 01:05:21;;;;;;;2.60;0.60;;;9.90;99.90;;;10.39;80.22;97437.69;5054991;28;20032;-86
2021/01/22 01:07:46;;;;;;;2.75;0.77;;;9.80;99.90;;;10.40;81.27;97444.06;5078068;28;20067;-84
2021/01/22 01:10:12;;;;;;;2.25;0.80;;;9.70;99.90;;;10.45;80.89;97424.00;5062276;28;20456;-84
2021/01/22 01:12:38;;;;;;;5.25;0.95;;;9.80;99.90;;;10.30;80.60;97434.72;5041152;28;20025;-85
2021/01/22 01:15:07;;;;;;;4.45;1.55;;;9.70;99.90;;;10.18;82.66;97426.25;5057918;28;20044;-86
2021/01/22 01:17:35;;;;;;;4.68;0.95;;;9.70;99.90;;;10.11;83.04;97424.38;5042046;28;20029;-86
2021/01/22 01:20:05;;;;;;;5.22;1.10;;;9.60;99.90;;;10.16;82.61;97418.31;5041717;28;20040;-86
2021/01/22 01:22:30;;;;;;;7.50;1.05;;;9.60;99.90;;;10.16;83.53;97423.09;5042892;28;20094;-86
2021/01/22 01:24:57;;;;;;;4.75;1.10;;;9.50;99.90;;;10.18;83.00;97410.28;5045053;28;20316;-85
2021/01/22 01:27:23;;;;;;;2.33;0.88;;;9.60;99.90;;;10.16;82.48;97404.34;5054320;28;20378;-84
2021/01/22 01:29:49;;;;;;;3.70;1.10;;;9.50;99.90;;;10.24;81.81;97416.91;5075332;28;20032;-85
2021/01/22 01:32:15;;;;;;;4.00;1.10;;;9.60;99.90;;;10.31;80.87;97418.75;5052355;28;20033;-84
2021/01/22 01:34:40;;;;;;;3.88;1.00;;;9.60;99.90;;;10.32;80.78;97425.91;5060579;28;20025;-84
2021/01/22 01:37:06;;;;;;;6.03;1.00;;;9.70;99.90;;;10.35;80.51;97417.44;5058883;28;20086;-85
2021/01/22 01:39:32;;;;;;;6.32;0.90;;;9.70;99.90;;;10.37;79.31;97423.38;5041716;28;20071;-83
2021/01/22 01:41:59;;;;;;;4.82;1.60;;;9.70;99.90;;;10.27;79.79;97418.06;5041371;28;20032;-84
2021/01/22 01:44:25;;;;;;;4.85;1.02;;;9.80;99.90;;;10.33;80.10;97430.28;5041590;28;20096;-84
2021/01/22 01:46:51;;;;;;;6.80;1.70;;;9.80;99.90;;;10.34;80.26;97443.75;5041623;28;20124;-83
2021/01/22 01:49:17;;;;;;;5.90;1.50;;;9.80;99.90;;;10.31;80.74;97424.31;5040478;28;20056;-83
2021/01/22 01:51:43;;;;;;;6.57;1.17;;;9.80;99.90;;;10.23;80.67;97426.50;5041069;28;20104;-86
2021/01/22 01:54:10;;;;;;;4.93;1.20;;;9.70;99.90;;;10.14;82.18;97412.38;5042356;28;20123;-84
2021/01/22 01:56:37;;;;;;;4.28;1.08;;;9.70;99.90;;;10.34;81.76;97413.09;5060884;28;20449;-86
2021/01/22 01:59:04;;;;;;;5.65;1.27;;;9.60;99.90;;;10.05;83.40;97426.06;5065092;28;20032;-85
2021/01/22 02:01:35;;;;;;;4.30;1.10;;;9.50;99.90;;;10.04;84.00;97416.94;5040878;28;20132;-85
2021/01/22 02:04:02;;;;;;;7.97;0.90;;;9.40;99.90;;;10.13;83.12;97418.34;5039801;28;20029;-85
2021/01/22 02:06:30;;;;;;;3.65;0.80;;;9.50;99.90;;;10.17;82.77;97422.66;5039965;28;20029;-83
2021/01/22 02:08:58;;;;;;;4.10;0.90;;;9.50;99.90;;;10.03;83.87;97412.59;5057782;28;20037;-84
2021/01/22 02:11:27;;;;;;;7.00;1.52;;;9.40;99.90;;;10.00;83.22;97416.25;5057543;28;20459;-84
2021/01/22 02:13:56;;;;;;;4.35;1.10;;;9.50;99.90;;;10.01;83.48;97426.19;5059022;28;20036;-83
2021/01/22 02:16:24;;;;;;;5.45;1.05;;;9.40;99.90;;;9.90;83.79;97422.03;5057852;28;20544;-83
2021/01/22 02:18:54;;;;;;;4.88;0.90;;;9.50;99.90;;;10.00;84.74;97430.19;5056290;28;20082;-83
2021/01/22 02:21:30;;;;;;;5.00;1.13;;;9.40;99.90;;;10.04;84.55;97438.47;5056596;28;20449;-85
2021/01/22 02:24:13;;;;;;;5.28;0.90;;;9.40;99.90;;;9.89;85.71;97459.47;5055602;28;20112;-85
2021/01/22 02:27:04;;;;;;;8.27;1.55;;;9.30;99.90;;;9.86;88.60;97527.22;5040056;28;20020;-86
2021/01/22 02:29:34;;;;;;;4.97;1.27;;;9.20;99.90;;;9.69;86.98;97548.69;5057849;28;20473;-83
2021/01/22 02:32:09;;;;;;;3.80;0.80;;;9.00;99.90;;;9.39;86.36;97576.69;5039680;28;20040;-84
2021/01/22 02:34:42;;;;;;;0.85;0.30;;;8.70;99.90;;;8.93;85.47;97605.25;5038684;28;20052;-85
2021/01/22 02:37:18;;;;;;;1.33;0.63;;;8.30;99.90;;;8.27;86.67;97608.53;5055888;28;20086;-85
2021/01/22 02:39:52;;;;;;;0.28;0.28;;;7.70;99.90;;;8.01;88.33;97617.56;5055882;28;20040;-86
2021/01/22 02:42:22;;;;;;;0.40;0.40;;;7.30;99.90;;;7.62;89.26;97612.41;5056025;28;20028;-86
2021/01/22 02:44:53;;;;;;;0.40;0.30;;;7.10;99.90;;;7.52;89.87;97640.28;5037992;28;20123;-87
2021/01/22 02:47:21;;;;;;;0.50;0.50;;;6.90;99.90;;;7.66;90.34;97651.28;5037809;28;20032;-87
2021/01/22 02:49:51;;;;;;;2.10;1.50;;;6.80;99.90;;;7.46;88.37;97667.72;5037353;28;20083;-85
2021/01/22 02:52:18;;;;;;;1.05;0.95;;;6.70;99.90;;;7.26;87.88;97670.25;5055620;28;20047;-84
2021/01/22 02:54:54;;;;;;;1.83;1.35;;;6.60;99.90;;;7.01;88.92;97699.34;5053592;28;20485;-85
2021/01/22 02:57:37;;;;;;;2.20;1.70;;;6.40;99.90;;;6.68;90.45;97717.34;5054805;28;20036;-85
2021/01/22 03:00:33;;;;;;;3.28;1.65;;;6.20;99.90;;;6.70;90.05;97751.84;5054960;28;20039;-83
2021/01/22 03:03:49;;;;;;;1.20;1.10;;;6.00;99.90;;;6.40;89.15;97772.91;5054778;28;20112;-85
2021/01/22 03:06:28;;;;;;;0.30;0.30;;;5.80;99.90;;;6.13;87.37;97798.28;5037775;28;20035;-86
2021/01/22 03:08:59;;;;;;;0.68;0.52;;;5.60;99.90;;;6.02;88.40;97811.38;5054844;28;20403;-86
2021/01/22 03:11:29;;;;;;;1.50;1.35;;;5.50;99.90;;;5.91;88.12;97820.88;5037801;28;20515;-86
2021/01/22 03:13:57;;;;;;;2.35;2.15;;;5.30;99.90;;;5.78;87.87;97825.94;5055592;28;20096;-85
2021/01/22 03:16:25;;;;;;;3.08;2.78;;;5.20;99.90;;;5.70;88.64;97832.69;5057619;28;20037;-85
2021/01/22 03:19:05;;;;;;;4.03;3.22;;;5.00;99.90;;;5.61;89.20;97838.63;5041028;28;20029;-85
2021/01/22 03:21:32;;;;;;;2.38;2.17;;;5.00;99.90;;;5.60;89.36;97847.31;5041460;28;20060;-86
2021/01/22 03:23:58;;;;;;;1.92;1.83;;;4.90;99.90;;;5.44;88.97;97852.41;5046704;28;20036;-84
2021/01/22 03:26:25;;;;;;;2.35;2.15;;;4.80;99.90;;;5.38;88.85;97854.78;5046911;28;20100;-85
2021/01/22 03:28:52;;;;;;;2.45;1.75;;;4.70;99.90;;;5.35;88.83;97863.84;5057251;28;20032;-87
2021/01/22 03:31:18;;;;;;;1.60;1.50;;;4.70;99.90;;;5.40;89.22;97873.75;5055389;28;20416;-87
2021/01/22 03:33:47;;;;;;;2.00;1.50;;;4.70;99.90;;;5.36;89.40;97873.75;5039010;28;20029;-86
2021/01/22 03:36:14;;;;;;;2.00;1.20;;;4.60;99.90;;;5.31;88.01;97880.44;5056443;28;20032;-86
2021/01/22 03:38:41;;;;;;;1.90;1.15;;;4.60;99.90;;;5.25;88.54;97886.75;5057392;28;20033;-86
2021/01/22 03:41:07;;;;;;;5.03;1.02;;;4.50;99.90;;;5.28;88.38;97894.25;5056807;28;20056;-85
2021/01/22 03:43:33;;;;;;;1.83;1.23;;;4.50;99.90;;;5.27;89.19;97900.97;5058156;28;20032;-85
2021/01/22 03:45:59;;;;;;;2.65;1.20;;;4.50;99.90;;;5.30;89.57;97906.53;5057480;28;20481;-86
2021/01/22 03:48:25;;;;;;;3.33;1.30;;;4.50;99.90;;;5.37;89.22;97913.25;5040431;28;20473;-87
2021/01/22 03:50:51;;;;;;;1.63;1.20;;;4.50;99.90;;;5.40;89.87;97920.78;5057341;28;20082;-86
2021/01/22 03:53:17;;;;;;;2.03;1.10;;;4.50;99.90;;;5.33;90.62;97913.25;5040862;28;20040;-85
2021/01/22 03:55:43;;;;;;;2.17;1.55;;;4.50;99.90;;;5.46;90.27;97905.41;5059040;28;20032;-86
2021/01/22 03:58:10;;;;;;;4.75;2.97;;;4.50;99.90;;;5.13;90.48;97917.53;5057863;28;20025;-85
2021/01/22 04:00:37;;;;;;;3.92;2.80;;;4.50;99.90;;;5.29;89.53;97940.94;5038391;28;20026;-85
2021/01/22 04:03:04;;;;;;;3.83;2.60;;;4.50;99.90;;;5.31;88.26;97946.84;5038385;28;20651;-85
2021/01/22 04:05:30;;;;;;;3.70;2.30;;;4.50;99.90;;;5.36;88.30;97956.78;5056176;28;20068;-85
2021/01/22 04:07:56;;;;;;;7.47;3.58;;;4.50;99.90;;;5.29;88.13;97953.97;5056334;28;20048;-86
2021/01/22 04:10:22;;;;;;;4.95;3.40;;;4.50;99.90;;;5.21;88.27;97947.59;5038631;28;20396;-83
2021/01/22 04:12:48;;;;;;;6.57;4.30;;;4.40;99.90;;;5.12;89.52;97957.44;5038639;28;20029;-84
2021/01/22 04:15:13;;;;;;;11.85;5.50;;;4.40;99.90;;;5.19;89.04;97963.00;5056214;28;20067;-84
2021/01/22 04:17:39;;;;;;;10.27;6.20;;;4.40;99.90;;;5.22;89.93;97973.31;5039227;28;20055;-83
2021/01/22 04:20:06;;;;;;;10.05;6.00;;;4.40;99.90;;;5.10;90.43;97988.25;5038202;28;20061;-85
2021/01/22 04:22:32;;;;;;;11.40;6.82;;;4.30;99.90;;;5.00;91.20;97988.97;5038552;28;20028;-85
2021/01/22 04:24:58;;;;;;;10.95;7.60;;;4.30;99.90;;;5.03;91.47;97992.94;5039739;28;20036;-85
2021/01/22 04:27:24;;;;;;;12.13;7.72;;;4.30;99.90;;;5.16;90.82;98002.50;5040051;28;20028;-85
2021/01/22 04:29:51;;;;;;;11.55;7.85;;;4.30;99.90;;;5.14;90.92;98013.94;5039800;28;20496;-86
2021/01/22 04:32:17;;;;;;;12.23;8.00;;;4.30;99.90;;;5.11;90.70;98017.50;5058576;28;20044;-82
2021/01/22 04:34:42;;;;;;;12.07;7.72;;;4.30;99.90;;;5.10;91.06;98013.16;5040114;28;20025;-85
2021/01/22 04:37:08;;;;;;;11.20;7.80;;;4.30;99.90;;;4.98;91.08;98018.97;5040293;28;20056;-85
2021/01/22 04:39:36;;;;;;;13.60;7.25;;;4.30;99.90;;;5.02;90.94;98019.81;5056873;28;20024;-86
2021/01/22 04:42:05;;;;;;;12.65;7.43;;;4.30;99.90;;;5.02;90.85;98019.81;5058103;28;20117;-85
2021/01/22 04:44:31;;;;;;;12.10;7.40;;;4.30;99.90;;;4.98;91.49;98013.44;5039778;28;20554;-84
2021/01/22 04:47:01;;;;;;;10.70;7.28;;;4.30;99.90;;;5.00;90.40;98008.34;5039983;28;20033;-83
2021/01/22 04:49:27;;;;;;;9.70;6.57;;;4.20;99.90;;;5.00;90.11;98015.84;5040442;28;20090;-83
2021/01/22 04:51:58;;;;;;;10.00;6.45;;;4.30;99.90;;;5.13;89.78;98029.00;5039580;28;20369;-83
2021/01/22 04:54:36;;;;;;;10.20;5.90;;;4.20;99.90;;;5.01;90.32;98029.28;5057328;28;20155;-84
2021/01/22 04:57:06;;;;;;;12.63;6.80;;;4.20;99.90;;;4.96;90.13;98048.22;5057985;28;20484;-84
2021/01/22 04:59:51;;;;;;;9.00;5.88;;;4.20;99.90;;;4.93;90.04;98047.00;5039310;28;20059;-85
2021/01/22 05:02:20;;;;;;;7.53;4.97;;;4.20;99.90;;;4.92;90.13;98034.34;5058184;28;20179;-84
2021/01/22 05:04:46;;;;;;;9.20;5.68;;;4.20;99.90;;;4.94;90.03;98050.56;5056407;28;20391;-84
2021/01/22 05:07:13;;;;;;;9.43;5.78;;;4.20;99.90;;;4.98;89.67;98045.84;5038805;28;20558;-84
2021/01/22 05:09:40;;;;;;;11.10;6.03;;;4.20;99.90;;;4.91;89.90;98052.16;5039379;28;20033;-85
2021/01/22 05:12:08;;;;;;;10.63;6.35;;;4.10;99.90;;;4.92;90.16;98045.41;5055568;28;20220;-84
2021/01/22 05:14:35;;;;;;;12.63;7.85;;;4.10;99.90;;;4.73;91.17;98046.44;5055643;28;20075;-84
2021/01/22 05:17:10;;;;;;;13.02;7.50;;;4.10;99.90;;;4.86;90.56;98043.38;5038718;28;20040;-84
2021/01/22 05:19:40;;;;;;;12.13;7.68;;;4.10;99.90;;;4.77;90.55;98047.28;5038932;28;20377;-84
2021/01/22 05:22:11;;;;;;;12.70;8.23;;;4.10;99.90;;;4.76;90.15;98053.97;5039558;28;20055;-84
2021/01/22 05:24:37;;;;;;;14.50;8.55;;;4.10;99.90;;;4.71;90.51;98045.25;5039518;28;20028;-85
2021/01/22 05:27:14;;;;;;;10.43;6.85;;;4.10;99.90;;;4.73;89.43;98043.69;5039638;28;20473;-86
2021/01/22 05:29:43;;;;;;;11.93;6.97;;;4.10;99.90;;;4.79;89.52;98046.88;5040755;28;20021;-87
2021/01/22 05:32:37;;;;;;;7.75;6.22;;;4.10;99.90;;;4.80;89.29;98048.47;5056863;28;20040;-88
2021/01/22 05:35:04;;;;;;;9.07;6.18;;;4.10;99.90;;;4.81;89.74;98041.78;5037870;28;20068;-88
2021/01/22 05:37:29;;;;;;;8.73;5.65;;;4.10;99.90;;;4.79;89.32;98050.44;5063344;23;20029;-79
2021/01/22 05:40:13;;;;;;;9.85;6.25;;;4.10;99.90;;;4.82;89.15;98054.41;5069251;28;20075;-79
2021/01/22 05:42:55;;;;;;;8.50;5.90;;;4.10;99.90;;;4.76;89.08;98064.25;5040151;28;20029;-80
2021/01/22 05:45:46;;;;;;;7.72;5.50;;;4.10;99.90;;;4.85;88.60;98075.78;5058158;28;20031;-80
2021/01/22 05:48:25;;;;;;;6.72;4.80;;;4.10;99.90;;;4.83;89.13;98055.22;5036817;28;20030;-80
2021/01/22 05:50:59;;;;;;;7.78;5.35;;;4.10;99.90;;;4.90;88.67;98071.88;5038205;28;20029;-80
2021/01/22 05:53:27;;;;;;;7.55;5.07;;;4.10;99.90;;;4.85;88.47;98075.00;5021282;28;20079;-80
2021/01/22 05:56:20;;;;;;;9.02;5.10;;;4.10;99.90;;;4.79;89.08;98077.31;5021033;28;20045;-79
2021/01/22 05:58:48;;;;;;;9.02;5.28;;;4.10;99.90;;;4.81;89.17;98068.63;5039923;28;20388;-80
2021/01/22 06:01:18;;;;;;;10.10;6.10;;;4.10;99.90;;;4.81;89.10;98069.44;5022731;28;20034;-80
2021/01/22 06:04:12;;;;;;;9.10;5.82;;;4.10;99.90;;;4.84;89.25;98079.72;5023717;28;20052;-83
2021/01/22 06:06:38;;;;;;;11.48;5.90;;;4.10;99.90;;;4.86;88.88;98074.59;5040326;28;20086;-84
2021/01/22 06:09:05;;;;;;;8.55;6.03;;;4.10;99.90;;;4.93;88.76;98073.88;5043637;28;20026;-80
2021/01/22 06:11:32;;;;;;;12.68;6.38;;;4.10;99.90;;;4.77;88.91;98074.94;5025151;28;20037;-82
2021/01/22 06:14:11;;;;;;;9.63;6.40;;;4.10;99.90;;;4.71;89.37;98073.69;5024453;28;20109;-82
2021/01/22 06:16:44;;;;;;;20.80;12.15;;;4.10;99.90;;;4.83;89.45;98080.91;5043466;28;20377;-81
2021/01/22 06:19:14;;;;;;;15.07;8.48;;;4.10;99.90;;;4.83;89.44;98080.91;5025731;28;20049;-81
2021/01/22 06:22:07;;;;;;;10.82;7.60;;;4.10;99.90;;;4.74;90.07;98072.94;5044429;28;20040;-83
2021/01/22 06:24:35;;;;;;;12.98;8.25;;;4.10;99.90;;;4.86;88.87;98069.06;5044780;28;20022;-80
2021/01/22 06:27:02;;;;;;;12.65;8.15;;;4.20;99.90;;;4.94;88.82;98075.47;5041740;28;20029;-82
2021/01/22 06:29:30;;;;;;;13.80;8.10;;;4.20;99.90;;;4.88;88.92;98071.47;5041055;28;20026;-82
2021/01/22 06:31:57;;;;;;;12.13;8.18;;;4.20;99.90;;;4.86;88.93;98076.56;5025382;28;20032;-84
2021/01/22 06:34:26;;;;;;;13.13;8.13;;;4.20;99.90;;;5.00;88.36;98074.72;5043126;28;20400;-80
2021/01/22 06:36:55;;;;;;;11.48;7.65;;;4.20;99.90;;;5.01;88.31;98087.34;5044265;28;20083;-80
2021/01/22 06:39:21;;;;;;;13.75;8.23;;;4.20;99.90;;;4.90;87.99;98083.72;5026358;28;20036;-82
2021/01/22 06:41:48;;;;;;;13.35;8.70;;;4.20;99.90;;;4.97;88.29;98091.28;5027139;28;20029;-81
2021/01/22 06:44:14;;;;;;;12.38;8.75;;;4.30;99.90;;;4.92;88.36;98097.16;5027106;28;20493;-83
2021/01/22 06:46:40;;;;;;;12.25;8.48;;;4.30;99.90;;;4.97;88.52;98107.88;5026860;28;20088;-82
2021/01/22 06:49:06;;;;;;;12.88;8.45;;;4.30;99.90;;;5.03;88.37;98100.81;5045819;28;20021;-82
2021/01/22 06:51:35;;;;;;;14.23;9.57;;;4.30;99.90;;;5.02;88.86;98113.06;5034940;28;20026;-81
2021/01/22 06:54:20;;;;;;;15.15;9.32;;;4.30;99.90;;;5.13;87.46;98111.19;5054157;28;20115;-79
2021/01/22 06:56:55;;;;;;;11.40;7.47;;;4.40;99.90;;;5.19;87.60;98117.94;5049940;28;20524;-81
2021/01/22 06:59:21;;;;;;;13.75;8.13;;;4.40;99.90;;;5.26;87.78;98124.34;5054619;28;20025;-78
2021/01/22 07:01:49;;;;;;;10.77;7.57;;;4.50;99.90;;;5.28;87.36;98121.16;5054686;28;20019;-79
2021/01/22 07:04:34;;;;;;;14.95;8.10;;;4.50;99.90;;;5.31;87.12;98123.16;5053194;28;20025;-81
2021/01/22 07:07:05;;;;;;;15.95;8.55;;;4.60;99.90;;;5.32;87.19;98128.34;5052922;28;20017;-81
2021/01/22 07:09:44;;;;;;;11.90;7.88;;;4.60;99.90;;;5.33;87.40;98140.97;5025052;28;20029;-81
2021/01/22 07:12:16;;;;;;;13.57;8.88;;;4.60;99.90;;;5.36;87.42;98150.50;5021494;28;20038;-82
2021/01/22 07:14:46;;;;;;;15.50;8.60;;;4.60;99.90;;;5.45;86.43;98144.63;5042466;28;20121;-80
2021/01/22 07:17:30;;;;;;;15.32;7.85;;;4.60;99.90;;;5.49;86.31;98160.06;5040120;28;20499;-81
2021/01/22 07:20:09;;;;;;;13.43;7.85;;;4.70;99.90;;;5.44;86.72;98160.44;5021417;28;20053;-81
2021/01/22 07:22:59;;;;;;;11.85;7.80;;;4.70;99.90;;;5.41;87.00;98166.75;5029970;28;20034;-82
2021/01/22 07:25:40;;;;;;;13.75;7.88;;;4.70;99.90;;;5.49;86.72;98164.84;5030783;28;20041;-83
2021/01/22 07:28:26;;;;;;;15.93;7.85;;;4.70;99.90;;;5.48;86.38;98169.56;5048463;28;20078;-84
2021/01/22 07:30:53;;;;;;;12.77;7.72;;;4.80;99.90;;;5.49;86.64;98162.06;5024806;28;20029;-84
2021/01/22 07:33:28;;;;;;;15.15;8.23;;;4.80;99.90;;;5.51;85.93;98168.00;5027668;28;20072;-81
2021/01/22 07:36:12;;;;;;;13.85;7.75;;;4.70;99.90;;;5.48;86.22;98177.88;5026573;28;20034;-83
2021/01/22 07:38:41;;;;;;;11.98;7.07;;;4.80;99.90;;;5.46;87.00;98180.22;5020476;28;20148;-82
2021/01/22 07:41:09;;;;;;;16.33;8.18;;;4.70;99.90;;;5.43;87.04;98183.75;5023977;28;20036;-83
2021/01/22 07:43:37;;;;;;;14.15;8.63;;;4.70;99.90;;;5.41;86.92;98183.34;5022646;28;20029;-79
2021/01/22 07:46:12;;;;;;;13.95;7.38;;;4.70;99.90;;;5.44;86.86;98179.00;5022729;28;20093;-83
2021/01/22 07:48:40;;;;;;;12.98;7.88;;;4.70;99.90;;;5.49;86.65;98187.75;5018391;28;20101;-81
2021/01/22 07:51:33;;;;;;;19.50;7.90;;;4.70;99.90;;;5.51;86.83;98179.06;5022501;28;20041;-84
2021/01/22 07:54:01;;;;;;;14.30;7.53;;;4.80;99.90;;;5.49;86.69;98181.44;5021483;28;20053;-80
2021/01/22 07:56:42;;;;;;;12.65;7.55;;;4.80;99.90;;;5.45;87.32;98191.69;5033022;28;20341;-81
2021/01/22 07:59:12;;;;;;;13.90;8.27;;;4.70;99.90;;;5.50;86.88;98191.31;5044002;28;20081;-81
2021/01/22 08:01:39;;;;;;;15.02;7.35;;;4.70;99.90;;;5.44;87.04;98188.13;5045826;28;20041;-81
2021/01/22 08:04:06;;;;;;;13.35;6.93;;;4.80;99.90;;;5.55;86.45;98196.50;5045733;28;20021;-82
2021/01/22 08:06:50;;;;;;;17.15;7.80;;;4.80;99.90;;;5.45;87.05;98195.25;5038700;28;20029;-83
2021/01/22 08:09:17;;;;;;;11.20;7.47;;;4.80;99.90;;;5.51;86.74;98201.22;5020375;28;20033;-81
2021/01/22 08:11:47;;;;;;;13.32;7.38;;;4.80;99.90;;;5.58;86.46;98202.06;5038034;28;20120;-81
2021/01/22 08:14:30;;;;;;;12.13;6.97;;;4.90;99.90;;;5.76;86.09;98204.97;5020418;28;20037;-84
2021/01/22 08:16:57;;;;;;;14.40;7.38;;;4.90;99.90;;;5.72;86.04;98212.44;5037030;28;20113;-84
2021/01/22 08:19:25;;;;;;;11.68;6.90;;;5.00;99.90;;;5.73;86.12;98225.13;5017543;28;20025;-80
2021/01/22 08:21:53;;;;;;;12.35;6.80;;;5.00;99.90;;;5.70;85.87;98225.88;5012044;28;20068;-83
2021/01/22 08:24:20;;;;;;;13.05;7.38;;;5.00;99.90;;;5.75;85.75;98219.97;5038313;28;20037;-82
2021/01/22 08:27:04;;;;;;;14.70;7.18;;;5.10;99.90;;;5.89;85.21;98236.75;5020685;28;20421;-82
2021/01/22 08:29:34;;;;;;;14.05;6.82;;;5.10;99.90;;;5.90;84.70;98232.81;5038124;28;20148;-80
2021/01/22 08:32:09;;;;;;;13.90;6.93;;;5.10;99.90;;;5.84;85.00;98237.84;5041942;28;20030;-82
2021/01/22 08:34:36;;;;;;;17.15;6.82;;;5.20;99.90;;;5.86;84.99;98225.63;5024980;28;20028;-81
2021/01/22 08:37:05;;;;;;;10.73;6.30;;;5.20;99.90;;;5.90;84.98;98232.00;5041422;28;20600;-83
2021/01/22 08:39:58;;;;;;;11.25;6.53;;;5.20;99.90;;;5.89;84.41;98236.75;5040393;28;20493;-81
2021/01/22 08:42:26;;;;;;;14.00;6.97;;;5.30;99.90;;;6.00;84.63;98223.78;5038413;28;20029;-84
2021/01/22 08:45:04;;;;;;;13.10;7.00;;;5.30;99.90;;;6.06;84.25;98227.75;5039644;28;20407;-83
2021/01/22 08:47:40;;;;;;;14.80;6.65;;;5.30;99.90;;;6.08;84.46;98232.91;5040288;28;20072;-81
2021/01/22 08:50:08;;;;;;;14.45;6.60;;;5.30;99.90;;;6.15;84.12;98244.03;5039481;28;20511;-83
2021/01/22 08:52:34;;;;;;;10.95;6.18;;;5.40;99.90;;;6.30;83.06;98229.88;5047256;28;20093;-81
2021/01/22 08:54:59;;;;;;;12.65;6.85;;;5.50;99.90;;;6.26;82.84;98239.38;5046926;28;20040;-80
2021/01/22 08:57:29;;;;;;;13.48;6.28;;;5.50;99.90;;;6.40;82.25;98235.84;5046776;28;20033;-81
2021/01/22 08:59:58;;;;;;;12.35;5.97;;;5.60;99.90;;;6.35;82.72;98243.38;5045519;28;20102;-82
2021/01/22 09:02:44;;;;;;;15.68;6.47;;;5.60;99.90;;;6.31;82.63;98242.56;5045302;28;20029;-81
2021/01/22 09:05:16;;;;;;;9.45;6.13;;;5.70;99.90;;;6.27;82.73;98244.50;5047834;28;20025;-84
2021/01/22 09:07:43;;;;;;;12.05;6.13;;;5.60;99.90;;;6.51;81.88;98253.34;5045426;28;20041;-81
2021/01/22 09:10:21;;;;;;;12.02;7.07;;;5.70;99.90;;;6.45;82.11;98252.13;5046704;28;20021;-83
2021/01/22 09:12:47;;;;;;;13.00;6.95;;;5.70;99.90;;;6.54;82.35;98261.69;5038657;28;20026;-78
2021/01/22 09:15:17;;;;;;;14.43;6.78;;;5.70;99.90;;;6.47;82.43;98264.41;5050279;28;20051;-81
2021/01/22 09:17:50;;;;;;;13.52;6.40;;;5.70;99.90;;;6.55;81.40;98268.78;5042455;28;20040;-81
2021/01/22 09:20:24;;;;;;;11.98;6.80;;;5.70;99.90;;;6.62;81.70;98282.69;5025964;28;20029;-82
2021/01/22 09:22:55;;;;;;;11.18;5.57;;;5.80;99.90;;;6.59;81.66;98286.25;5042793;28;20036;-81
2021/01/22 09:25:26;;;;;;;10.18;6.35;;;5.80;99.90;;;6.63;82.04;98283.50;5023846;28;20056;-82
2021/01/22 09:27:52;;;;;;;11.80;6.38;;;5.80;99.90;;;6.62;81.52;98290.22;5042106;28;20049;-82
2021/01/22 09:30:25;;;;;;;11.63;6.60;;;5.80;99.90;;;6.63;82.30;98298.16;5035737;28;20136;-81
2021/01/22 09:32:58;;;;;;;11.55;5.88;;;5.80;99.90;;;6.59;81.49;98296.56;5034726;28;20041;-81
2021/01/22 09:35:28;;;;;;;10.90;5.50;;;5.90;99.90;;;6.60;81.55;98307.25;5036151;28;20112;-81
2021/01/22 09:37:55;;;;;;;11.50;6.15;;;5.90;99.90;;;6.62;81.90;98315.19;5035676;28;20033;-80
2021/01/22 09:40:24;;;;;;;10.93;5.50;;;5.90;99.90;;;6.67;80.44;98306.50;5035512;28;20148;-81
2021/01/22 09:42:50;;;;;;;12.30;5.20;;;5.90;99.90;;;6.86;81.05;98298.69;5036107;28;20121;-80
2021/01/22 09:45:18;;;;;;;11.70;5.53;;;6.00;99.90;;;6.92;80.56;98304.63;5036084;28;20440;-81
2021/01/22 09:47:44;;;;;;;11.20;5.50;;;6.10;99.90;;;6.95;80.14;98309.41;5038493;28;20105;-82
2021/01/22 09:50:15;;;;;;;13.80;5.70;;;6.20;99.90;;;7.12;79.43;98311.47;5036514;28;20025;-82
2021/01/22 09:52:41;;;;;;;9.60;5.20;;;6.30;99.90;;;7.28;79.11;98308.34;5018881;28;20037;-82
2021/01/22 09:55:17;;;;;;;13.00;5.88;;;6.40;99.90;;;7.31;78.76;98313.91;5035875;28;20033;-81
2021/01/22 09:57:44;;;;;;;;;;;6.50;99.90;;;7.14;79.69;98319.38;5020407;28;20030;-82
2021/01/22 10:00:14;;;;;;;;;;;6.50;99.90;;;7.17;79.75;98322.16;5037891;28;19920;-81
2021/01/22 10:02:40;;;;;;;11.20;4.88;;;6.50;99.90;;;7.22;79.06;98321.81;5019346;28;19916;-82
2021/01/22 10:05:07;;;;;;;11.00;4.80;;;6.60;99.90;;;7.20;78.14;98332.50;5036388;28;20025;-83
2021/01/22 10:07:34;;;;;;;9.23;4.65;;;6.50;99.90;;;7.14;78.77;98330.47;5018705;28;20083;-81
2021/01/22 10:10:00;;;;;;;9.90;4.22;;;6.40;99.90;;;7.14;78.59;98336.84;5035859;28;20055;-81
2021/01/22 10:12:26;;;;;;;12.05;4.90;;;6.50;99.90;;;7.29;78.03;98346.78;5034925;28;20036;-82
2021/01/22 10:14:53;;;;;;;9.15;4.95;;;6.50;99.90;;;7.31;77.97;98350.00;5037313;28;20028;-81
2021/01/22 10:17:20;;;;;;;9.85;5.78;;;6.60;99.90;;;7.46;77.74;98352.78;5026755;28;20029;-81
2021/01/22 10:19:46;;;;;;;9.15;4.53;;;6.60;99.90;;;7.37;77.52;98355.94;5019260;28;20041;-83
2021/01/22 10:22:12;;;;;;;12.43;4.88;;;6.60;99.90;;;7.25;77.94;98359.88;5034736;28;20029;-81
2021/01/22 10:24:38;;;;;;;9.02;4.70;;;6.60;99.90;;;7.31;78.87;98363.06;5029307;28;20025;-82
2021/01/22 10:27:04;;;;;;;8.55;4.57;;;6.60;99.90;;;7.18;78.78;98373.75;5017937;28;20079;-82
2021/01/22 10:29:29;;;;;;;12.93;5.00;;;6.60;99.90;;;7.19;77.97;98364.19;5019263;28;20025;-81
2021/01/22 10:31:55;;;;;;;10.82;4.32;;;6.50;99.90;;;7.15;77.54;98363.41;5018927;28;20067;-83
2021/01/22 10:34:21;;;;;;;6.85;4.35;;;6.40;99.90;;;7.24;77.65;98377.72;5021677;28;20564;-81
2021/01/22 10:36:47;;;;;;;10.43;4.75;;;6.40;99.90;;;7.31;78.06;98379.72;5017206;28;20030;-82
2021/01/22 10:39:13;;;;;;;8.60;4.18;;;6.50;99.90;;;7.16;78.20;98375.31;5012046;28;20057;-82
2021/01/22 10:41:39;;;;;;;9.65;4.47;;;6.50;99.90;;;7.36;77.24;98380.13;5013481;28;20501;-83